Time;durP1;ratioP1;P1;durP2;ratioP2;P2;SDS_P1;SDS_P2;PMS_P1;PMS_P2;Temp;Humidity;BMP_temperature;BMP_pressure;BME280_temperature;BME280_humidity;BME280_pressure;Samples;Min_cycle;Max_cycle;Signal;HPM_P1;HPM_P2
2022/01/26 00:06:48;;;;;;;20.32;14.28;;;;;;;-0.41;41.62;102275.02;1620890;87;21185;-51
2022/01/26 00:09:15;;;;;;;21.93;14.75;;;;;;;-0.43;41.56;102272.78;1617440;87;21094;-52
2022/01/26 00:11:41;;;;;;;23.30;15.75;;;;;;;-0.45;41.62;102266.73;1593393;88;21056;-51
2022/01/26 00:14:11;;;;;;;22.42;16.30;;;;;;;-0.48;41.63;102267.87;1577596;89;21121;-51
2022/01/26 00:19:07;;;;;;;22.70;16.12;;;;;;;-0.54;41.92;102268.88;1547435;91;21133;-51
2022/01/26 00:29:31;;;;;;;19.87;14.18;;;;;;;-0.59;41.51;102263.94;1533816;93;21182;-51
2022/01/26 00:32:56;;;;;;;23.15;15.13;;;;;;;-0.61;41.63;102262.98;1560901;90;21121;-51
2022/01/26 00:42:46;;;;;;;23.40;15.28;;;;;;;-0.68;41.66;102263.48;1572406;90;20120;-51
2022/01/26 00:45:12;;;;;;;23.55;14.73;;;;;;;-0.71;41.68;102263.36;1577615;90;21100;-53
2022/01/26 00:47:41;;;;;;;20.10;14.70;;;;;;;-0.73;41.88;102268.80;1586143;89;21581;-51
2022/01/26 00:50:11;;;;;;;22.35;15.48;;;;;;;-0.73;41.93;102263.69;1582233;89;21612;-51
2022/01/26 00:52:41;;;;;;;21.70;15.03;;;;;;;-0.74;42.00;102265.76;1590708;89;21087;-52
2022/01/26 00:55:11;;;;;;;23.95;16.85;;;;;;;-0.75;41.89;102269.12;1570119;90;21592;-51
2022/01/26 00:57:38;;;;;;;21.97;16.32;;;;;;;-0.76;41.96;102264.81;1577022;88;21156;-52
2022/01/26 01:00:12;;;;;;;20.00;14.45;;;;;;;-0.75;42.02;102261.47;1579966;90;21110;-51
2022/01/26 01:02:38;;;;;;;24.18;16.25;;;;;;;-0.73;42.04;102262.41;1582531;89;21069;-51
2022/01/26 01:05:15;;;;;;;21.20;15.63;;;;;;;-0.74;41.90;102261.92;1578619;90;21047;-51
2022/01/26 01:07:38;;;;;;;23.57;16.50;;;;;;;-0.75;42.02;102257.63;1582146;90;21077;-51
2022/01/26 01:10:04;;;;;;;25.75;16.90;;;;;;;-0.76;42.02;102253.31;1562049;90;21141;-51
2022/01/26 01:12:37;;;;;;;26.82;16.87;;;;;;;-0.76;41.96;102244.36;1590976;90;21037;-51
2022/01/26 01:14:59;;;;;;;21.77;16.15;;;;;;;-0.77;42.03;102242.63;1582186;89;21157;-52
2022/01/26 01:17:35;;;;;;;23.02;15.43;;;;;;;-0.76;41.95;102240.95;1576780;90;21143;-52
2022/01/26 01:27:48;;;;;;;22.62;16.32;;;;;;;-0.80;42.00;102236.08;1556001;90;21636;-52
2022/01/26 01:30:06;;;;;;;23.92;15.43;;;;;;;-0.82;42.08;102230.91;1554349;90;21127;-51
2022/01/26 01:32:36;;;;;;;29.48;16.87;;;;;;;-0.82;42.22;102230.02;1554761;90;21183;-51
2022/01/26 01:34:55;;;;;;;23.47;15.63;;;;;;;-0.84;42.36;102225.23;1553720;91;21105;-52
2022/01/26 01:37:21;;;;;;;21.48;15.95;;;;;;;-0.83;42.36;102223.17;1557194;90;21132;-52
2022/01/26 01:39:48;;;;;;;23.60;16.10;;;;;;;-0.82;42.29;102213.41;1569740;91;21085;-51
2022/01/26 01:42:14;;;;;;;23.95;16.52;;;;;;;-0.81;42.29;102213.90;1562879;91;21038;-51
2022/01/26 01:44:41;;;;;;;20.68;15.45;;;;;;;-0.81;42.32;102207.51;1557542;90;21056;-51
2022/01/26 01:47:07;;;;;;;21.05;15.45;;;;;;;-0.80;42.34;102215.63;1560506;90;21081;-51
2022/01/26 01:49:35;;;;;;;23.38;16.23;;;;;;;-0.80;42.34;102210.52;1565904;90;21090;-51
2022/01/26 01:52:06;;;;;;;20.45;15.20;;;;;;;-0.78;42.26;102212.75;1555491;90;21096;-52
2022/01/26 01:54:33;;;;;;;22.60;16.37;;;;;;;-0.78;42.29;102205.08;1560720;90;21630;-52
2022/01/26 01:56:59;;;;;;;22.48;15.63;;;;;;;-0.74;42.32;102202.29;1561156;90;21642;-51
2022/01/26 01:59:31;;;;;;;23.02;16.37;;;;;;;-0.73;42.29;102202.35;1577917;89;21141;-51
2022/01/26 02:01:57;;;;;;;;;;;;;;;-0.74;42.19;102203.14;1611091;88;21101;-51
2022/01/26 02:04:24;;;;;;;23.85;16.27;;;;;;;-0.73;42.17;102197.63;1606422;85;20143;-52
2022/01/26 02:06:50;;;;;;;22.70;15.25;;;;;;;-0.74;42.25;102194.19;1686942;83;21578;-51
2022/01/26 02:09:17;;;;;;;25.60;16.30;;;;;;;-0.76;42.27;102191.97;1699454;84;21478;-51
2022/01/26 02:11:52;;;;;;;20.97;15.58;;;;;;;-0.75;42.24;102186.07;1717570;82;21527;-51
2022/01/26 02:14:28;;;;;;;22.58;16.17;;;;;;;-0.76;42.35;102189.41;1681341;83;21007;-51
2022/01/26 02:17:03;;;;;;;23.07;16.75;;;;;;;-0.73;42.38;102193.41;1709126;84;21074;-52
2022/01/26 02:52:19;;;;;;;24.82;16.73;;;;;;;-0.33;43.68;102172.66;1677601;83;21598;-52
2022/01/26 02:54:49;;;;;;;24.65;16.90;;;;;;;-0.27;43.60;102172.93;1692107;83;21538;-51
2022/01/26 02:57:31;;;;;;;23.10;16.97;;;;;;;-0.24;43.82;102174.36;1705215;83;21014;-51
2022/01/26 03:02:40;;;;;;;23.47;16.02;;;;;;;-0.17;44.02;102172.56;1707973;83;21053;-51
2022/01/26 03:05:03;;;;;;;25.35;17.23;;;;;;;-0.13;43.92;102170.61;1748410;80;21558;-52
2022/01/26 03:07:47;;;;;;;28.32;18.05;;;;;;;-0.09;43.85;102169.92;1753015;81;21056;-51
2022/01/26 03:15:18;;;;;;;;;;;;;;;0.02;44.13;102159.28;1585533;89;21080;-49
2022/01/26 03:20:29;;;;;;;25.62;17.90;;;;;;;0.14;44.03;102155.95;1583254;89;21590;-52
2022/01/26 03:28:39;;;;;;;26.23;18.37;;;;;;;0.19;43.79;102142.93;1545671;91;21621;-51
2022/01/26 03:36:31;;;;;;;28.20;19.37;;;;;;;0.26;44.13;102133.43;1548949;92;21133;-52
2022/01/26 03:41:46;;;;;;;25.95;17.50;;;;;;;0.35;44.20;102141.50;1504181;94;21087;-51
2022/01/26 03:44:11;;;;;;;25.70;18.00;;;;;;;0.36;44.27;102135.55;1535071;92;21083;-51
2022/01/26 03:46:39;;;;;;;26.80;18.67;;;;;;;0.40;44.30;102133.59;1539727;92;21138;-52
2022/01/26 03:49:06;;;;;;;28.65;19.07;;;;;;;0.41;44.42;102124.68;1541207;92;21098;-51
2022/01/26 03:51:33;;;;;;;26.37;18.77;;;;;;;0.45;44.45;102125.70;1546816;92;21715;-52
2022/01/26 03:54:01;;;;;;;27.20;19.25;;;;;;;0.49;44.60;102124.62;1540629;92;21086;-52
2022/01/26 03:56:27;;;;;;;31.65;20.20;;;;;;;0.52;44.62;102127.28;1544350;92;21538;-51
2022/01/26 03:58:53;;;;;;;29.70;18.65;;;;;;;0.55;44.74;102124.86;1548138;92;21614;-51
2022/01/26 04:01:20;;;;;;;28.70;19.75;;;;;;;0.57;44.86;102126.20;1538572;92;21066;-52
2022/01/26 04:03:47;;;;;;;28.85;19.80;;;;;;;0.57;44.96;102119.39;1532671;93;21063;-51
2022/01/26 04:06:13;;;;;;;30.60;19.65;;;;;;;0.58;45.08;102121.13;1543365;92;21090;-51
2022/01/26 04:08:42;;;;;;;28.07;20.05;;;;;;;0.62;45.11;102120.83;1535628;92;21142;-51
2022/01/26 04:13:37;;;;;;;26.97;18.90;;;;;;;0.63;45.22;102125.16;1634520;87;21108;-52
2022/01/26 04:16:06;;;;;;;25.20;18.75;;;;;;;0.63;45.29;102123.88;1632966;88;21103;-51
2022/01/26 04:18:38;;;;;;;30.30;19.98;;;;;;;0.66;45.18;102122.73;1636044;86;21632;-51
2022/01/26 04:21:14;;;;;;;29.52;20.02;;;;;;;0.65;45.08;102114.17;1625681;87;21021;-51
2022/01/26 04:23:42;;;;;;;27.00;18.45;;;;;;;0.66;45.19;102111.20;1630593;86;21022;-51
2022/01/26 04:26:01;;;;;;;30.60;19.90;;;;;;;0.65;45.24;102106.88;1653139;84;21128;-51
2022/01/26 04:28:37;;;;;;;26.27;19.20;;;;;;;0.67;45.27;102103.58;1674358;84;21568;-51
2022/01/26 04:30:57;;;;;;;29.98;19.73;;;;;;;0.68;45.23;102109.58;1659669;84;21081;-51
2022/01/26 04:33:23;;;;;;;29.52;19.85;;;;;;;0.69;45.26;102115.16;1669197;84;21134;-51
2022/01/26 04:35:50;;;;;;;28.67;18.82;;;;;;;0.69;45.27;102111.31;1671863;84;21130;-51
2022/01/26 04:43:17;;;;;;;26.97;19.37;;;;;;;0.69;45.39;102108.75;1695545;84;21436;-51
2022/01/26 04:45:40;;;;;;;29.25;19.57;;;;;;;0.68;45.36;102107.87;1704360;83;21135;-52
2022/01/26 04:48:06;;;;;;;26.50;19.12;;;;;;;0.68;45.47;102104.45;1697147;83;21062;-52
2022/01/26 04:50:33;;;;;;;30.17;19.50;;;;;;;0.69;45.22;102103.63;1693142;84;21040;-51
2022/01/26 04:52:59;;;;;;;24.65;17.75;;;;;;;0.67;45.22;102109.09;1696940;83;21032;-51
2022/01/26 04:55:26;;;;;;;26.82;19.80;;;;;;;0.66;45.37;102100.96;1705194;83;21074;-52
2022/01/26 04:57:52;;;;;;;26.48;19.15;;;;;;;0.64;45.41;102098.31;1698303;83;21077;-52
2022/01/26 05:00:19;;;;;;;29.00;21.05;;;;;;;0.65;45.45;102102.64;1684195;83;21541;-51
2022/01/26 05:02:46;;;;;;;28.23;19.48;;;;;;;0.68;45.39;102092.93;1702063;83;21018;-52
2022/01/26 05:05:12;;;;;;;27.52;19.85;;;;;;;0.69;45.40;102087.86;1712543;83;20980;-51
2022/01/26 05:07:39;;;;;;;27.13;19.32;;;;;;;0.70;45.32;102079.77;1701927;83;21025;-51
2022/01/26 05:10:07;;;;;;;25.05;18.80;;;;;;;0.71;45.38;102072.54;1705448;84;21030;-51
2022/01/26 05:12:35;;;;;;;26.27;18.10;;;;;;;0.71;45.46;102071.26;1710267;84;21099;-52
2022/01/26 05:15:02;;;;;;;27.25;18.80;;;;;;;0.71;45.43;102071.26;1701060;83;20990;-52
2022/01/26 05:17:30;;;;;;;27.17;19.07;;;;;;;0.72;45.50;102080.70;1689545;83;21554;-51
2022/01/26 05:19:59;;;;;;;25.45;18.67;;;;;;;0.71;45.61;102077.66;1698570;81;21002;-52
2022/01/26 05:22:25;;;;;;;29.63;19.25;;;;;;;0.72;45.57;102080.27;1755296;81;21082;-51
2022/01/26 05:24:53;;;;;;;27.17;20.00;;;;;;;0.72;45.66;102066.62;1778457;80;21007;-51
2022/01/26 05:27:19;;;;;;;26.55;19.52;;;;;;;0.74;45.80;102077.36;1764429;81;21043;-51
2022/01/26 05:29:46;;;;;;;28.90;19.00;;;;;;;0.75;45.83;102077.84;1738939;81;21044;-51
2022/01/26 05:32:12;;;;;;;27.73;20.00;;;;;;;0.75;45.95;102086.81;1763714;80;21030;-52
2022/01/26 05:34:39;;;;;;;28.98;20.82;;;;;;;0.76;46.02;102082.57;1764903;80;21024;-52
2022/01/26 05:37:05;;;;;;;25.80;19.45;;;;;;;0.78;46.16;102086.06;1688237;84;21030;-52
2022/01/26 05:39:33;;;;;;;32.00;21.62;;;;;;;0.79;46.17;102080.98;1741349;80;21124;-51
2022/01/26 05:42:04;;;;;;;28.73;20.35;;;;;;;0.81;46.20;102073.35;1754558;80;21537;-51
2022/01/26 05:44:31;;;;;;;28.77;19.62;;;;;;;0.84;46.26;102067.08;1749793;80;21038;-51
2022/01/26 05:46:58;;;;;;;29.57;20.12;;;;;;;0.86;46.22;102065.85;1764997;80;21027;-51
2022/01/26 05:49:25;;;;;;;30.27;21.37;;;;;;;0.89;46.35;102070.67;1750361;80;21062;-51
2022/01/26 05:51:53;;;;;;;28.87;20.05;;;;;;;0.91;46.39;102066.48;1750522;80;21044;-51
2022/01/26 05:54:19;;;;;;;29.87;21.20;;;;;;;0.95;46.46;102068.34;1750795;81;21037;-51
2022/01/26 05:56:47;;;;;;;28.62;19.75;;;;;;;0.97;46.42;102061.59;1754075;80;21022;-51
2022/01/26 05:59:20;;;;;;;31.27;21.50;;;;;;;1.00;46.46;102057.88;1755173;80;21018;-51
2022/01/26 06:01:49;;;;;;;27.20;19.80;;;;;;;1.02;46.41;102053.67;1768203;80;21081;-52
2022/01/26 06:04:16;;;;;;;29.48;20.92;;;;;;;1.05;46.51;102056.33;1760849;80;21096;-52
2022/01/26 06:06:43;;;;;;;29.12;19.90;;;;;;;1.07;46.62;102055.98;1769766;80;21614;-51
2022/01/26 06:09:09;;;;;;;26.75;18.73;;;;;;;1.08;46.62;102056.46;1748761;80;21516;-53
2022/01/26 06:11:36;;;;;;;26.85;18.98;;;;;;;1.09;46.76;102054.38;1774062;80;20979;-52
2022/01/26 06:14:02;;;;;;;30.43;20.95;;;;;;;1.11;46.82;102043.77;1753494;80;21002;-52
2022/01/26 06:16:29;;;;;;;27.32;19.52;;;;;;;1.15;46.67;102037.06;1755531;80;21102;-51
2022/01/26 06:18:56;;;;;;;30.52;19.98;;;;;;;1.16;46.77;102035.83;1768342;80;21034;-52
2022/01/26 06:21:23;;;;;;;30.10;20.85;;;;;;;1.20;46.84;102036.41;1740552;80;21081;-51
2022/01/26 06:23:51;;;;;;;28.67;20.15;;;;;;;1.22;46.98;102039.89;1727438;82;21760;-52
2022/01/26 06:26:17;;;;;;;28.40;19.62;;;;;;;1.26;46.89;102048.55;1716896;83;21046;-52
2022/01/26 06:28:43;;;;;;;28.40;20.37;;;;;;;1.30;46.90;102051.73;1745203;82;21037;-52
2022/01/26 06:31:11;;;;;;;29.37;20.05;;;;;;;1.33;47.02;102048.86;1709282;83;21024;-51
2022/01/26 06:33:39;;;;;;;30.32;20.15;;;;;;;1.36;46.97;102048.10;1686728;83;21086;-52
2022/01/26 06:36:06;;;;;;;29.07;20.82;;;;;;;1.37;46.96;102046.86;1695270;83;20998;-52
2022/01/26 06:38:32;;;;;;;29.10;20.77;;;;;;;1.39;47.05;102046.51;1706557;82;21004;-52
2022/01/26 06:41:00;;;;;;;28.40;20.08;;;;;;;1.44;47.11;102038.98;1727709;82;21004;-51
2022/01/26 06:43:30;;;;;;;31.48;21.17;;;;;;;1.46;47.22;102040.76;1716763;83;21075;-52
2022/01/26 06:46:07;;;;;;;32.05;21.42;;;;;;;1.48;47.14;102042.97;1726399;81;21042;-52
2022/01/26 06:51:05;;;;;;;29.65;20.45;;;;;;;1.58;47.17;102039.05;1699525;82;21074;-51
2022/01/26 06:53:32;;;;;;;31.10;21.02;;;;;;;1.61;47.20;102033.61;1706105;82;21053;-51
2022/01/26 06:55:58;;;;;;;27.32;20.30;;;;;;;1.65;47.35;102027.77;1702759;83;21106;-52
2022/01/26 06:58:25;;;;;;;29.80;21.48;;;;;;;1.70;47.45;102027.92;1700867;83;21054;-53
2022/01/26 07:00:51;;;;;;;33.58;21.50;;;;;;;1.76;47.61;102027.25;1711149;82;21046;-52
2022/01/26 07:03:18;;;;;;;30.15;20.92;;;;;;;1.81;47.54;102023.16;1700799;81;21592;-52
2022/01/26 07:05:44;;;;;;;36.20;22.20;;;;;;;1.87;47.62;102018.23;1722228;82;21494;-52
2022/01/26 07:08:12;;;;;;;34.23;21.82;;;;;;;1.92;47.53;102020.13;1703298;83;21075;-52
2022/01/26 07:10:39;;;;;;;33.33;22.40;;;;;;;1.97;47.42;102020.28;1737422;82;21075;-52
2022/01/26 07:13:05;;;;;;;32.25;22.45;;;;;;;2.00;47.47;102018.67;1725065;81;21013;-51
2022/01/26 07:23:32;;;;;;;32.70;23.12;;;;;;;2.17;47.59;102011.52;1695338;83;21073;-52
2022/01/26 07:25:58;;;;;;;35.88;23.10;;;;;;;2.20;47.72;102006.09;1707330;83;21114;-51
2022/01/26 07:28:27;;;;;;;35.20;22.42;;;;;;;2.23;47.67;102013.00;1729840;82;21061;-52
2022/01/26 07:30:53;;;;;;;37.08;23.57;;;;;;;2.26;47.60;102015.68;1700084;83;21041;-52
2022/01/26 07:33:19;;;;;;;36.48;24.30;;;;;;;2.31;47.64;102010.26;1712488;83;20995;-52
2022/01/26 07:35:46;;;;;;;38.28;24.47;;;;;;;2.35;47.54;102008.25;1713432;84;21043;-51
2022/01/26 07:38:13;;;;;;;38.00;23.65;;;;;;;2.37;47.60;102009.20;1703445;83;21013;-51
2022/01/26 07:40:41;;;;;;;37.20;23.92;;;;;;;2.40;47.71;102003.73;1740236;82;21455;-52
2022/01/26 07:43:08;;;;;;;36.35;24.40;;;;;;;2.45;47.83;101998.74;1716161;82;21015;-51
2022/01/26 07:45:34;;;;;;;39.03;25.65;;;;;;;2.50;47.97;101999.73;1694458;83;21012;-52
2022/01/26 07:48:00;;;;;;;37.83;24.23;;;;;;;2.56;48.02;102002.49;1687634;83;21026;-52
2022/01/26 07:50:27;;;;;;;38.95;25.02;;;;;;;2.62;47.78;102003.96;1700050;83;20983;-52
2022/01/26 07:52:54;;;;;;;37.48;25.15;;;;;;;2.66;47.76;102004.51;1690350;83;21048;-52
2022/01/26 07:55:22;;;;;;;36.30;23.98;;;;;;;2.72;47.72;102002.12;1735061;82;20992;-52
2022/01/26 07:57:50;;;;;;;34.70;23.02;;;;;;;2.77;47.82;102001.86;1712804;82;21019;-51
2022/01/26 08:00:18;;;;;;;38.73;24.30;;;;;;;2.83;47.69;101993.04;1732275;81;21023;-51
2022/01/26 08:02:45;;;;;;;35.92;23.42;;;;;;;2.88;47.81;101997.91;1734932;82;21115;-52
2022/01/26 08:05:12;;;;;;;37.13;26.40;;;;;;;2.95;47.83;101992.51;1721015;81;21021;-51
2022/01/26 08:07:40;;;;;;;43.75;28.92;;;;;;;3.03;47.87;101998.77;1724643;82;21486;-52
2022/01/26 08:10:08;;;;;;;36.95;24.65;;;;;;;3.10;47.91;101994.23;1734516;82;21494;-51
2022/01/26 08:12:37;;;;;;;39.67;24.35;;;;;;;3.16;47.92;101994.00;1729098;82;21030;-52
2022/01/26 08:15:07;;;;;;;37.63;23.25;;;;;;;3.22;47.75;102000.59;1736843;82;20972;-51
2022/01/26 08:17:36;;;;;;;34.13;24.10;;;;;;;3.26;47.55;101995.99;1730889;82;21078;-52
2022/01/26 08:20:05;;;;;;;31.48;21.97;;;;;;;3.30;47.52;102000.39;1732120;82;21034;-52
2022/01/26 08:22:32;;;;;;;31.20;22.87;;;;;;;3.34;47.44;101991.48;1739676;82;21023;-51
2022/01/26 08:24:59;;;;;;;33.80;22.58;;;;;;;3.36;47.54;101994.97;1721690;81;20991;-52
2022/01/26 08:27:28;;;;;;;30.20;21.27;;;;;;;3.38;47.54;101995.88;1734697;82;21070;-51
2022/01/26 08:30:02;;;;;;;34.78;23.67;;;;;;;3.40;47.82;101989.08;1730469;82;21066;-52
2022/01/26 08:32:23;;;;;;;34.98;23.38;;;;;;;3.44;47.76;101994.76;1764170;80;21053;-52
2022/01/26 08:34:50;;;;;;;32.30;22.87;;;;;;;3.49;47.88;101994.45;1765839;80;21045;-52
2022/01/26 08:37:16;;;;;;;30.88;23.10;;;;;;;3.51;47.90;101991.09;1760517;79;21039;-52
2022/01/26 08:39:43;;;;;;;33.48;24.27;;;;;;;3.55;47.84;101998.47;1770495;80;21096;-52
2022/01/26 08:42:09;;;;;;;34.43;23.73;;;;;;;3.58;47.89;102001.14;1756024;80;21778;-52
2022/01/26 08:44:36;;;;;;;29.57;23.38;;;;;;;3.60;47.97;101995.20;1761152;80;20986;-52
2022/01/26 08:47:04;;;;;;;32.03;22.75;;;;;;;3.63;47.99;101989.24;1762678;80;21029;-52
2022/01/26 08:49:32;;;;;;;33.40;24.27;;;;;;;3.66;47.85;101988.92;1757978;80;21089;-52
2022/01/26 08:51:59;;;;;;;39.50;27.93;;;;;;;3.69;47.77;101989.43;1747219;80;21010;-52
2022/01/26 08:54:25;;;;;;;36.23;24.77;;;;;;;3.71;47.78;101991.19;1744952;80;21053;-53
2022/01/26 08:56:53;;;;;;;33.15;23.50;;;;;;;3.73;47.80;101989.96;1731246;80;20979;-52
2022/01/26 08:59:22;;;;;;;33.78;23.38;;;;;;;3.72;47.69;101983.94;1754925;80;21013;-52
2022/01/26 09:01:48;;;;;;;35.65;23.83;;;;;;;3.74;47.73;101989.11;1761881;80;21033;-51
2022/01/26 09:04:15;;;;;;;37.53;24.77;;;;;;;3.74;47.81;101980.10;1767514;80;21037;-52
2022/01/26 09:07:00;;;;;;;36.42;25.23;;;;;;;3.74;47.86;101977.53;1741825;80;21144;-51
2022/01/26 09:09:30;;;;;;;37.30;27.10;;;;;;;3.74;47.97;101977.53;1762907;80;21022;-51
2022/01/26 09:11:58;;;;;;;43.50;29.23;;;;;;;3.75;48.20;101971.56;1763767;80;20998;-52
2022/01/26 09:14:27;;;;;;;53.60;32.90;;;;;;;3.76;48.09;101968.14;1758879;80;21050;-52
2022/01/26 09:16:54;;;;;;;39.48;26.95;;;;;;;3.75;48.13;101972.41;1752723;81;21051;-52
2022/01/26 09:21:54;;;;;;;60.83;33.40;;;;;;;3.74;48.23;101960.39;1756580;80;21037;-51
2022/01/26 09:24:20;;;;;;;41.73;26.93;;;;;;;3.74;48.35;101956.94;1764204;80;21040;-52
2022/01/26 09:26:47;;;;;;;36.30;25.80;;;;;;;3.73;48.62;101950.06;1767646;80;21062;-52
2022/01/26 09:29:14;;;;;;;41.53;28.67;;;;;;;3.77;48.79;101949.30;1770764;80;21062;-51
2022/01/26 09:31:42;;;;;;;42.75;27.70;;;;;;;3.80;48.89;101948.08;1760644;80;21034;-52
2022/01/26 09:34:09;;;;;;;38.20;26.75;;;;;;;3.82;49.00;101944.71;1763251;80;21093;-53
2022/01/26 09:36:35;;;;;;;35.70;26.15;;;;;;;3.87;49.08;101948.69;1766578;80;21018;-51
2022/01/26 09:39:01;;;;;;;36.28;24.98;;;;;;;3.89;49.04;101947.02;1766315;80;20993;-52
2022/01/26 09:41:28;;;;;;;35.38;24.65;;;;;;;3.90;49.01;101941.02;1766279;80;21054;-52
2022/01/26 09:43:54;;;;;;;35.52;24.00;;;;;;;3.92;49.21;101946.67;1770436;80;21026;-52
2022/01/26 09:46:21;;;;;;;37.42;25.10;;;;;;;3.97;49.31;101944.21;1750159;80;21038;-52
2022/01/26 09:48:47;;;;;;;37.45;25.30;;;;;;;4.01;49.34;101939.59;1770591;80;21050;-51
2022/01/26 09:51:16;;;;;;;38.65;24.98;;;;;;;4.05;49.46;101941.40;1773783;80;21033;-53
2022/01/26 09:53:42;;;;;;;34.80;24.12;;;;;;;4.08;49.48;101935.89;1768214;80;21007;-51
2022/01/26 09:56:09;;;;;;;37.33;25.12;;;;;;;4.11;49.52;101936.39;1769562;80;21108;-52
2022/01/26 09:58:36;;;;;;;33.00;23.30;;;;;;;4.15;49.51;101938.20;1764029;80;21006;-52
2022/01/26 10:01:04;;;;;;;35.52;25.45;;;;;;;4.17;49.53;101935.23;1767662;80;21057;-52
2022/01/26 10:03:34;;;;;;;35.68;26.23;;;;;;;4.20;49.67;101935.33;1768663;80;21031;-52
2022/01/26 10:06:01;;;;;;;37.63;25.80;;;;;;;4.24;49.81;101935.84;1771322;80;21537;-52
2022/01/26 10:08:57;;;;;;;34.75;25.25;;;;;;;4.27;49.78;101933.31;1743507;80;21565;-52
2022/01/26 10:19:06;;;;;;;37.03;25.37;;;;;;;4.38;50.01;101921.97;1762781;80;21094;-52
2022/01/26 10:21:33;;;;;;;35.25;24.77;;;;;;;4.41;50.03;101929.33;1716504;82;21062;-52
2022/01/26 10:24:10;;;;;;;38.63;26.52;;;;;;;4.42;50.03;101920.78;1718341;82;21092;-52
2022/01/26 10:26:38;;;;;;;40.65;26.35;;;;;;;4.44;50.17;101920.39;1716519;82;21151;-52
2022/01/26 10:29:06;;;;;;;39.70;27.25;;;;;;;4.46;50.39;101911.40;1704033;83;21061;-52
2022/01/26 10:31:39;;;;;;;42.38;29.42;;;;;;;4.48;50.55;101905.45;1716245;82;21125;-52
2022/01/26 10:34:13;;;;;;;40.45;29.12;;;;;;;4.55;50.63;101905.16;1720723;82;21033;-52
2022/01/26 10:36:43;;;;;;;37.13;25.45;;;;;;;4.58;50.63;101897.48;1725271;82;21026;-52
2022/01/26 10:39:25;;;;;;;39.70;27.60;;;;;;;4.62;50.74;101898.87;1718138;82;21065;-52
2022/01/26 10:41:53;;;;;;;42.10;27.53;;;;;;;4.68;50.78;101897.70;1717564;82;21038;-51
2022/01/26 10:44:39;;;;;;;38.60;28.45;;;;;;;4.74;50.71;101896.53;1715028;82;21018;-52
2022/01/26 10:47:05;;;;;;;37.63;27.25;;;;;;;4.78;50.70;101893.17;1690051;83;21480;-52
2022/01/26 10:54:52;;;;;;;37.23;26.55;;;;;;;4.93;50.76;101880.59;1637337;86;21076;-52
2022/01/26 10:57:18;;;;;;;34.13;25.30;;;;;;;4.98;50.86;101873.35;1617284;86;21110;-52
2022/01/26 10:59:47;;;;;;;38.35;25.75;;;;;;;5.05;50.77;101868.77;1629474;86;21585;-52
2022/01/26 11:02:20;;;;;;;37.53;26.30;;;;;;;5.09;50.61;101870.56;1632382;86;21002;-52
2022/01/26 11:04:43;;;;;;;37.75;25.45;;;;;;;5.11;50.68;101861.14;1627751;86;21561;-52
2022/01/26 11:07:11;;;;;;;36.98;26.95;;;;;;;5.16;50.70;101867.23;1628037;87;21516;-52
2022/01/26 11:09:40;;;;;;;35.00;26.07;;;;;;;5.19;50.71;101867.30;1630880;86;21077;-51
2022/01/26 11:12:10;;;;;;;36.23;27.58;;;;;;;5.23;50.79;101862.64;1616129;86;21095;-52
2022/01/26 11:14:47;;;;;;;38.53;28.10;;;;;;;5.27;50.64;101867.02;1587008;89;21073;-52
2022/01/26 11:17:31;;;;;;;37.03;26.12;;;;;;;5.30;50.71;101861.89;1524308;92;21121;-52
2022/01/26 11:19:58;;;;;;;37.95;26.85;;;;;;;5.32;50.92;101858.91;1550827;91;21132;-52
2022/01/26 11:22:28;;;;;;;34.83;25.15;;;;;;;5.35;50.94;101854.70;1544341;91;21569;-53
2022/01/26 11:24:54;;;;;;;36.10;26.27;;;;;;;5.39;50.94;101856.89;1539248;91;21034;-53
2022/01/26 11:27:21;;;;;;;36.53;26.25;;;;;;;5.40;50.91;101858.65;1543654;92;21057;-52
2022/01/26 11:29:52;;;;;;;33.63;23.92;;;;;;;5.41;51.00;101857.78;1546093;92;21100;-52
2022/01/26 11:34:56;;;;;;;36.05;26.45;;;;;;;5.41;50.94;101857.78;1479901;95;21646;-51
2022/01/26 11:37:48;;;;;;;35.13;26.30;;;;;;;5.41;50.91;101853.91;1479698;96;21558;-52
2022/01/26 11:46:11;;;;;;;32.13;24.60;;;;;;;5.40;51.47;101852.20;1454864;97;21155;-51
2022/01/26 11:48:38;;;;;;;36.03;25.20;;;;;;;5.39;51.53;101858.19;1475889;96;21601;-52
2022/01/26 11:51:05;;;;;;;33.83;25.10;;;;;;;5.39;51.62;101851.73;1468477;97;21668;-53
2022/01/26 11:53:32;;;;;;;35.70;26.33;;;;;;;5.40;51.77;101852.20;1501032;94;21152;-52
2022/01/26 11:56:13;;;;;;;36.23;25.97;;;;;;;5.42;51.89;101849.22;1461738;96;21135;-52
2022/01/26 11:58:43;;;;;;;34.43;25.10;;;;;;;5.41;51.85;101846.17;1456337;96;21170;-53
2022/01/26 12:01:30;;;;;;;33.42;23.80;;;;;;;5.41;52.03;101847.05;1482289;96;21107;-52
2022/01/26 12:04:01;;;;;;;36.55;26.00;;;;;;;5.43;52.19;101844.48;1519643;94;21631;-52
2022/01/26 12:06:40;;;;;;;36.53;26.27;;;;;;;5.46;52.30;101843.27;1516806;93;21131;-52
2022/01/26 12:09:07;;;;;;;33.53;24.85;;;;;;;5.48;52.29;101841.13;1499751;94;21139;-53
2022/01/26 12:11:34;;;;;;;46.48;30.72;;;;;;;5.50;52.30;101834.72;1468192;96;21528;-52
2022/01/26 12:14:05;;;;;;;37.63;27.17;;;;;;;5.50;52.41;101836.02;1539585;90;21162;-52
2022/01/26 12:16:37;;;;;;;35.20;25.43;;;;;;;5.51;52.48;101833.86;1560861;90;21221;-52
2022/01/26 12:38:07;;;;;;;;;;;;;;;5.55;53.25;101823.61;1588509;89;21057;-50
2022/01/26 12:43:54;;;;;;;34.18;25.55;;;;;;;5.59;53.49;101830.56;1611837;88;21366;-53
2022/01/26 12:46:32;;;;;;;33.95;24.02;;;;;;;5.62;53.59;101820.70;1594045;89;21062;-50
2022/01/26 12:49:13;;;;;;;32.88;24.47;;;;;;;5.66;53.61;101819.91;1561983;90;21647;-50
2022/01/26 12:51:45;;;;;;;33.95;26.60;;;;;;;5.70;53.66;101821.69;1562731;90;21111;-50
2022/01/26 12:54:12;;;;;;;34.40;26.25;;;;;;;5.73;53.66;101824.30;1560760;90;21133;-50
2022/01/26 12:56:39;;;;;;;36.17;26.93;;;;;;;5.76;53.70;101815.31;1576383;90;21148;-50
2022/01/26 12:59:13;;;;;;;33.13;24.35;;;;;;;5.79;53.71;101815.34;1608477;86;21141;-50
2022/01/26 13:01:40;;;;;;;32.53;25.23;;;;;;;5.83;53.76;101802.08;1642561;86;21365;-50
2022/01/26 13:04:11;;;;;;;38.35;26.95;;;;;;;5.86;53.81;101801.72;1661177;85;21070;-51
2022/01/26 13:06:43;;;;;;;72.15;44.18;;;;;;;5.89;53.85;101805.66;1656508;85;21488;-50
2022/01/26 13:11:53;;;;;;;72.32;44.18;;;;;;;5.94;53.68;101816.90;1638331;87;21051;-51
2022/01/26 13:14:38;;;;;;;57.03;38.58;;;;;;;5.97;53.71;101816.08;1638140;87;21561;-50
2022/01/26 13:22:48;;;;;;;49.42;33.85;;;;;;;6.03;53.71;101826.50;1633131;88;21086;-50
2022/01/26 13:27:42;;;;;;;49.63;33.53;;;;;;;6.06;53.82;101827.39;1598749;89;21624;-51
2022/01/26 13:30:31;;;;;;;49.48;33.35;;;;;;;6.09;53.78;101823.99;1588429;89;21634;-51
2022/01/26 13:44:06;;;;;;;39.67;27.98;;;;;;;5.81;53.94;101824.02;1543888;92;21632;-51
2022/01/26 13:51:24;;;;;;;39.83;29.67;;;;;;;5.63;54.15;101831.05;1525021;93;21176;-51
2022/01/26 13:53:52;;;;;;;42.27;29.35;;;;;;;5.61;54.24;101831.86;1525365;93;21146;-50
2022/01/26 13:56:33;;;;;;;38.48;28.60;;;;;;;5.60;54.26;101835.30;1521936;93;21622;-51
2022/01/26 13:59:12;;;;;;;40.03;29.12;;;;;;;5.57;54.22;101831.38;1497190;94;21093;-51
2022/01/26 14:01:30;;;;;;;37.53;27.93;;;;;;;5.52;54.20;101831.73;1506937;94;21083;-51
2022/01/26 14:04:02;;;;;;;36.33;28.15;;;;;;;5.44;54.36;101829.46;1504740;94;21078;-51
2022/01/26 14:06:24;;;;;;;35.60;25.37;;;;;;;5.40;54.54;101834.97;1508215;94;21081;-50
2022/01/26 14:08:51;;;;;;;35.08;27.25;;;;;;;5.40;54.55;101832.84;1531299;90;21062;-51
2022/01/26 14:11:18;;;;;;;35.10;25.62;;;;;;;5.36;54.66;101834.48;1551444;91;21089;-51
2022/01/26 14:13:45;;;;;;;36.63;27.25;;;;;;;5.32;54.76;101833.10;1563869;91;21541;-51
2022/01/26 14:16:16;;;;;;;50.75;31.90;;;;;;;5.30;54.87;101830.92;1558805;90;21093;-51
2022/01/26 14:18:47;;;;;;;65.83;41.73;;;;;;;5.29;54.99;101835.23;1552874;91;21163;-51
2022/01/26 14:26:42;;;;;;;43.52;31.57;;;;;;;5.27;55.13;101839.92;1562742;90;21085;-51
2022/01/26 14:29:16;;;;;;;45.05;32.10;;;;;;;5.23;55.30;101845.87;1600187;88;21117;-51